createdAt,value
2017-07-15T00:00:10.237Z,-4.13
2017-07-15T00:01:04.300Z,-4.13
2017-07-15T00:01:52.245Z,-4.13
2017-07-15T00:02:40.325Z,-4.13
2017-07-15T00:03:35.411Z,-4.13
2017-07-15T00:04:35.419Z,-4.13
2017-07-15T00:05:29.357Z,-4.13
2017-07-15T00:06:23.478Z,-4.13
2017-07-15T00:07:17.584Z,-4.13
2017-07-15T00:08:17.444Z,-4.13
2017-07-15T00:09:12.539Z,-4.13
2017-07-15T00:10:12.663Z,-4.13
2017-07-15T00:11:07.626Z,-4.13
2017-07-15T00:12:01.829Z,-4.13
2017-07-15T00:12:50.706Z,-4.13
2017-07-15T00:13:44.729Z,-4.13
2017-07-15T00:14:38.818Z,-4.13
2017-07-15T00:15:26.845Z,-4.13
2017-07-15T00:16:15.941Z,-4.13
2017-07-15T00:17:04.247Z,-4.13
2017-07-15T00:17:51.892Z,-4.13
2017-07-15T00:18:46.028Z,-4.13
2017-07-15T00:19:34.060Z,-4.13
2017-07-15T00:20:28.086Z,-4.13
2017-07-15T00:21:22.189Z,-4.13
2017-07-15T00:22:16.081Z,-4.13
2017-07-15T00:23:10.195Z,-4.13
2017-07-15T00:24:04.210Z,-4.13
2017-07-15T00:24:58.277Z,-4.13
2017-07-15T00:25:47.268Z,-4.13
2017-07-15T00:26:35.286Z,-4.13
2017-07-15T00:27:23.648Z,-4.13
2017-07-15T00:28:17.414Z,-4.13
2017-07-15T00:29:05.509Z,-4.13
2017-07-15T00:30:06.519Z,-4.13
2017-07-15T00:31:00.589Z,-4.13
2017-07-15T00:31:48.554Z,-4.13
2017-07-15T00:32:42.644Z,-4.13
2017-07-15T00:33:42.747Z,-4.13
2017-07-15T00:34:37.717Z,-4.13
2017-07-15T00:35:32.715Z,-4.13
2017-07-15T00:36:32.805Z,-4.13
2017-07-15T00:37:27.183Z,-4.13
2017-07-15T00:38:21.883Z,-4.13
2017-07-15T00:39:10.855Z,-4.13
2017-07-15T00:39:59.931Z,-4.13
2017-07-15T00:40:48.873Z,-4.13
2017-07-15T00:41:44.018Z,-4.13
2017-07-15T00:42:38.012Z,-4.13
2017-07-15T00:43:27.144Z,-4.13
2017-07-15T00:44:27.075Z,-4.13
2017-07-15T00:45:16.151Z,-4.13
2017-07-15T00:46:05.220Z,-4.13
2017-07-15T00:47:00.256Z,-4.13
2017-07-15T00:47:55.279Z,-4.13
2017-07-15T00:48:44.315Z,-4.13
2017-07-15T00:49:39.323Z,-4.13
2017-07-15T00:50:27.413Z,-4.13
2017-07-15T00:51:28.417Z,-4.13
2017-07-15T00:52:30.278Z,-4.13
2017-07-15T00:53:18.487Z,-4.13
2017-07-15T00:54:06.545Z,-4.13
2017-07-15T00:55:00.566Z,-4.13
2017-07-15T00:55:55.584Z,-4.13
2017-07-15T00:56:43.591Z,-4.13
2017-07-15T00:57:32.701Z,-4.13
2017-07-15T00:58:20.720Z,-4.13
2017-07-15T00:59:08.944Z,-4.13
2017-07-15T01:00:02.739Z,-4.13
2017-07-15T01:01:02.762Z,-4.13
2017-07-15T01:02:02.938Z,-4.13
2017-07-15T01:02:57.057Z,-4.13
2017-07-15T01:03:46.311Z,-4.13
2017-07-15T01:04:39.926Z,-4.13
2017-07-15T01:05:40.021Z,-4.13
2017-07-15T01:06:40.082Z,-4.13
2017-07-15T01:07:40.166Z,-4.13
2017-07-15T01:08:41.121Z,-4.13
2017-07-15T01:09:41.170Z,-4.13
2017-07-15T01:10:35.168Z,-4.13
2017-07-15T01:11:35.182Z,-4.14
2017-07-15T01:12:24.351Z,-4.14
2017-07-15T01:13:24.299Z,-4.14
2017-07-15T01:14:19.346Z,-4.14
2017-07-15T01:15:14.313Z,-4.14
2017-07-15T01:16:14.401Z,-4.14
2017-07-15T01:17:08.526Z,-4.14
2017-07-15T01:18:02.451Z,-4.13
2017-07-15T01:18:56.562Z,-4.13
2017-07-15T01:19:50.577Z,-4.13
2017-07-15T01:20:44.550Z,-4.14
2017-07-15T01:21:38.628Z,-4.14
2017-07-15T01:22:32.646Z,-4.14
2017-07-15T01:23:26.641Z,-4.14
2017-07-15T01:24:26.694Z,-4.14
2017-07-15T01:25:21.787Z,-4.14
2017-07-15T01:26:16.832Z,-4.14
2017-07-15T01:27:10.836Z,-4.14
2017-07-15T01:27:59.927Z,-4.14
2017-07-15T01:28:53.998Z,-4.14
2017-07-15T01:29:53.900Z,-4.14
2017-07-15T01:30:48.024Z,-4.14
2017-07-15T01:31:42.036Z,-4.14
2017-07-15T01:32:36.100Z,-4.14
2017-07-15T01:33:36.017Z,-4.14
2017-07-15T01:34:31.082Z,-4.14
2017-07-15T01:35:32.103Z,-4.14
2017-07-15T01:36:20.304Z,-4.14
2017-07-15T01:37:08.582Z,-4.14
2017-07-15T01:37:57.317Z,-4.14
2017-07-15T01:38:51.314Z,-4.14
2017-07-15T01:39:45.611Z,-4.14
2017-07-15T01:40:40.367Z,-4.14
2017-07-15T01:41:35.389Z,-4.14
2017-07-15T01:42:29.836Z,-4.14
2017-07-15T01:43:23.513Z,-4.14
2017-07-15T01:44:12.496Z,-4.14
2017-07-15T01:45:06.553Z,-4.14
2017-07-15T01:46:00.594Z,-4.14
2017-07-15T01:46:55.835Z,-4.14
2017-07-15T01:47:49.884Z,-4.14
2017-07-15T01:48:37.732Z,-4.14
2017-07-15T01:49:26.790Z,-4.14
2017-07-15T01:50:15.816Z,-4.14
2017-07-15T01:51:09.891Z,-4.14
2017-07-15T01:52:10.056Z,-4.14
2017-07-15T01:53:03.860Z,-4.14
2017-07-15T01:54:03.867Z,-4.14
2017-07-15T01:54:53.004Z,-4.14
2017-07-15T01:55:53.024Z,-4.14
2017-07-15T01:56:47.000Z,-4.14
2017-07-15T01:57:41.329Z,-4.14
2017-07-15T01:58:35.067Z,-4.14
2017-07-15T01:59:35.188Z,-4.14
2017-07-15T02:00:29.160Z,-4.14
2017-07-15T02:01:24.220Z,-4.14
2017-07-15T02:02:24.235Z,-4.14
2017-07-15T02:03:13.272Z,-4.14
2017-07-15T02:04:07.330Z,-4.14
2017-07-15T02:05:02.359Z,-4.14
2017-07-15T02:05:51.486Z,-4.14
2017-07-15T02:06:45.330Z,-4.14
2017-07-15T02:07:39.486Z,-4.14
2017-07-15T02:08:27.657Z,-4.14
2017-07-15T02:09:22.529Z,-4.14
2017-07-15T02:10:17.614Z,-4.14
2017-07-15T02:11:06.660Z,-4.14
2017-07-15T02:12:00.680Z,-4.14
2017-07-15T02:13:01.776Z,-4.14
2017-07-15T02:13:50.783Z,-4.14
2017-07-15T02:14:50.838Z,-4.14
2017-07-15T02:15:44.952Z,-4.14
2017-07-15T02:16:38.749Z,-4.14
2017-07-15T02:17:28.216Z,-4.14
2017-07-15T02:18:21.916Z,-4.14
2017-07-15T02:19:16.972Z,-4.14
2017-07-15T02:20:17.006Z,-4.14
2017-07-15T02:21:11.037Z,-4.14
2017-07-15T02:22:05.089Z,-4.14
2017-07-15T02:23:00.171Z,-4.14
2017-07-15T02:23:54.178Z,-4.14
2017-07-15T02:24:48.132Z,-4.14
2017-07-15T02:25:37.186Z,-4.14
2017-07-15T02:26:26.307Z,-4.14
2017-07-15T02:27:15.207Z,-4.14
2017-07-15T02:28:04.283Z,-4.14
2017-07-15T02:28:53.283Z,-4.14
2017-07-15T02:29:53.411Z,-4.14
2017-07-15T02:30:47.413Z,-4.14
2017-07-15T02:31:42.743Z,-4.14
2017-07-15T02:32:36.474Z,-4.14
2017-07-15T02:33:42.546Z,-4.14
2017-07-15T02:34:37.717Z,-4.14
2017-07-15T02:35:32.636Z,-4.14
2017-07-15T02:36:26.698Z,-4.14
2017-07-15T02:37:20.750Z,-4.14
2017-07-15T02:38:20.722Z,-4.14
2017-07-15T02:39:15.754Z,-4.14
2017-07-15T02:40:09.786Z,-4.14
2017-07-15T02:41:04.960Z,-4.14
2017-07-15T02:41:58.788Z,-4.14
2017-07-15T02:42:53.884Z,-4.14
2017-07-15T02:43:42.306Z,-4.14
2017-07-15T02:44:35.954Z,-4.14
2017-07-15T02:45:24.960Z,-4.14
2017-07-15T02:46:19.114Z,-4.14
2017-07-15T02:47:19.101Z,-4.14
2017-07-15T02:48:13.177Z,-4.14
2017-07-15T02:49:02.130Z,-4.13
2017-07-15T02:50:02.260Z,-4.13
2017-07-15T02:51:02.222Z,-4.14
2017-07-15T02:51:56.275Z,-4.14
2017-07-15T02:52:45.261Z,-4.14
2017-07-15T02:53:39.300Z,-4.14
2017-07-15T02:54:33.353Z,-4.13
2017-07-15T02:55:22.441Z,-4.13
2017-07-15T02:56:11.485Z,-4.14
2017-07-15T02:57:06.597Z,-4.14
2017-07-15T02:57:55.581Z,-4.14
2017-07-15T02:58:44.564Z,-4.14
2017-07-15T02:59:38.612Z,-4.13
2017-07-15T03:00:27.756Z,-4.13
2017-07-15T03:01:15.676Z,-4.13
2017-07-15T03:02:10.788Z,-4.13
2017-07-15T03:03:05.695Z,-4.13
2017-07-15T03:03:59.906Z,-4.13
2017-07-15T03:04:53.939Z,-4.13
2017-07-15T03:05:47.937Z,-4.13
2017-07-15T03:06:42.161Z,-4.13
2017-07-15T03:07:37.068Z,-4.13
2017-07-15T03:08:30.996Z,-4.13
2017-07-15T03:09:19.022Z,-4.13
2017-07-15T03:10:19.105Z,-4.13
2017-07-15T03:11:25.116Z,-4.13
2017-07-15T03:12:19.235Z,-4.13
2017-07-15T03:13:13.251Z,-4.13
2017-07-15T03:14:07.219Z,-4.13
2017-07-15T03:15:07.192Z,-4.13
2017-07-15T03:16:02.314Z,-4.13
2017-07-15T03:17:02.278Z,-4.13
2017-07-15T03:17:57.394Z,-4.13
2017-07-15T03:18:45.606Z,-4.13
2017-07-15T03:19:40.754Z,-4.13
2017-07-15T03:20:34.546Z,-4.13
2017-07-15T03:21:28.521Z,-4.13
2017-07-15T03:22:23.587Z,-4.13
2017-07-15T03:23:17.582Z,-4.13
2017-07-15T03:24:11.651Z,-4.13
2017-07-15T03:25:00.952Z,-4.13
2017-07-15T03:26:01.676Z,-4.13
2017-07-15T03:26:55.756Z,-4.13
2017-07-15T03:27:44.722Z,-4.13
2017-07-15T03:28:38.801Z,-4.13
2017-07-15T03:29:32.925Z,-4.13
2017-07-15T03:30:26.883Z,-4.13
2017-07-15T03:31:20.921Z,-4.13
2017-07-15T03:32:15.017Z,-4.13
2017-07-15T03:33:09.065Z,-4.13
2017-07-15T03:33:58.004Z,-4.13
2017-07-15T03:34:46.125Z,-4.13
2017-07-15T03:35:34.105Z,-4.13
2017-07-15T03:36:34.146Z,-4.13
2017-07-15T03:37:28.188Z,-4.13
2017-07-15T03:38:22.258Z,-4.13
2017-07-15T03:39:16.385Z,-4.13
2017-07-15T03:40:10.303Z,-4.13
2017-07-15T03:41:10.340Z,-4.13
2017-07-15T03:41:59.342Z,-4.13
2017-07-15T03:42:53.419Z,-4.13
2017-07-15T03:43:41.904Z,-4.13
2017-07-15T03:44:35.542Z,-4.13
2017-07-15T03:45:30.541Z,-4.13
2017-07-15T03:46:31.602Z,-4.13
2017-07-15T03:47:25.596Z,-4.13
2017-07-15T03:48:25.624Z,-4.13
2017-07-15T03:49:20.742Z,-4.13
2017-07-15T03:50:15.680Z,-4.13
2017-07-15T03:51:09.782Z,-4.13
2017-07-15T03:52:09.840Z,-4.13
2017-07-15T03:53:03.825Z,-4.13
2017-07-15T03:54:05.033Z,-4.13
2017-07-15T03:54:58.888Z,-4.13
2017-07-15T03:55:47.002Z,-4.13
2017-07-15T03:56:42.033Z,-4.13
2017-07-15T03:57:37.016Z,-4.13
2017-07-15T03:58:31.061Z,-4.13
2017-07-15T03:59:26.067Z,-4.13
2017-07-15T04:00:20.125Z,-4.13
2017-07-15T04:01:09.262Z,-4.13
2017-07-15T04:02:03.317Z,-4.13
2017-07-15T04:02:57.340Z,-4.13
2017-07-15T04:03:57.335Z,-4.13
2017-07-15T04:04:45.354Z,-4.13
2017-07-15T04:05:45.356Z,-4.13
2017-07-15T04:06:40.488Z,-4.13
2017-07-15T04:07:29.550Z,-4.13
2017-07-15T04:08:24.539Z,-4.13
2017-07-15T04:09:19.471Z,-4.13
2017-07-15T04:10:14.582Z,-4.13
2017-07-15T04:11:02.631Z,-4.13
2017-07-15T04:11:57.634Z,-4.13
2017-07-15T04:12:52.714Z,-4.13
2017-07-15T04:13:46.743Z,-4.13
2017-07-15T04:14:35.685Z,-4.13
2017-07-15T04:15:24.842Z,-4.13
2017-07-15T04:16:18.871Z,-4.13
2017-07-15T04:17:12.960Z,-4.13
2017-07-15T04:18:06.989Z,-4.13
2017-07-15T04:19:01.063Z,-4.13
2017-07-15T04:19:55.996Z,-4.13
2017-07-15T04:20:44.994Z,-4.12
2017-07-15T04:21:39.126Z,-4.12
2017-07-15T04:22:39.102Z,-4.13
2017-07-15T04:23:28.427Z,-4.13
2017-07-15T04:24:22.181Z,-4.12
2017-07-15T04:25:22.191Z,-4.12
2017-07-15T04:26:11.228Z,-4.12
2017-07-15T04:27:00.338Z,-4.12
2017-07-15T04:28:00.380Z,-4.12
2017-07-15T04:28:55.456Z,-4.12
2017-07-15T04:29:50.375Z,-4.12
2017-07-15T04:30:44.532Z,-4.12
2017-07-15T04:31:38.863Z,-4.12
2017-07-15T04:32:26.582Z,-4.12
2017-07-15T04:33:20.555Z,-4.12
2017-07-15T04:34:15.699Z,-4.12
2017-07-15T04:35:09.694Z,-4.12
2017-07-15T04:36:03.775Z,-4.12
2017-07-15T04:36:58.712Z,-4.12
2017-07-15T04:37:52.851Z,-4.12
2017-07-15T04:38:46.840Z,-4.12
2017-07-15T04:39:46.898Z,-4.12
2017-07-15T04:40:40.886Z,-4.12
2017-07-15T04:41:41.922Z,-4.12
2017-07-15T04:42:36.005Z,-4.12
2017-07-15T04:43:36.028Z,-4.12
2017-07-15T04:44:31.107Z,-4.12
2017-07-15T04:45:25.114Z,-4.12
2017-07-15T04:46:19.200Z,-4.12
2017-07-15T04:47:13.225Z,-4.12
2017-07-15T04:48:07.190Z,-4.12
2017-07-15T04:49:01.313Z,-4.12
2017-07-15T04:49:50.291Z,-4.12
2017-07-15T04:50:39.403Z,-4.12
2017-07-15T04:51:39.800Z,-4.12
2017-07-15T04:52:39.396Z,-4.12
2017-07-15T04:53:39.485Z,-4.12
2017-07-15T04:54:33.494Z,-4.12
2017-07-15T04:55:21.522Z,-4.12
2017-07-15T04:56:16.655Z,-4.12
2017-07-15T04:57:04.656Z,-4.12
2017-07-15T04:57:52.742Z,-4.12
2017-07-15T04:58:46.708Z,-4.12
2017-07-15T04:59:34.665Z,-4.12
2017-07-15T05:00:34.889Z,-4.12
2017-07-15T05:01:23.978Z,-4.12
2017-07-15T05:02:18.891Z,-4.12
2017-07-15T05:03:12.964Z,-4.12
2017-07-15T05:04:13.932Z,-4.12
2017-07-15T05:05:08.957Z,-4.12
2017-07-15T05:06:04.095Z,-4.12
2017-07-15T05:06:58.131Z,-4.12
2017-07-15T05:07:52.105Z,-4.12
2017-07-15T05:08:41.225Z,-4.12
2017-07-15T05:09:30.276Z,-4.12
2017-07-15T05:10:18.206Z,-4.12
2017-07-15T05:11:12.275Z,-4.12
2017-07-15T05:12:06.436Z,-4.12
2017-07-15T05:13:06.358Z,-4.12
2017-07-15T05:14:06.412Z,-4.12
2017-07-15T05:15:07.397Z,-4.12
2017-07-15T05:16:08.395Z,-4.11
2017-07-15T05:17:02.446Z,-4.11
2017-07-15T05:17:51.593Z,-4.11
2017-07-15T05:18:46.555Z,-4.11
2017-07-15T05:19:34.584Z,-4.11
2017-07-15T05:20:23.664Z,-4.12
2017-07-15T05:21:12.810Z,-4.12
2017-07-15T05:22:07.834Z,-4.12
2017-07-15T05:23:01.827Z,-4.12
2017-07-15T05:23:55.966Z,-4.12
2017-07-15T05:24:50.202Z,-4.12
2017-07-15T05:25:49.906Z,-4.12
2017-07-15T05:26:43.995Z,-4.12
2017-07-15T05:27:38.358Z,-4.12
2017-07-15T05:28:27.155Z,-4.12
2017-07-15T05:29:15.187Z,-4.12
2017-07-15T05:30:09.116Z,-4.12
2017-07-15T05:30:57.170Z,-4.12
2017-07-15T05:31:46.626Z,-4.12
2017-07-15T05:32:40.333Z,-4.12
2017-07-15T05:33:28.410Z,-4.12
2017-07-15T05:34:28.397Z,-4.12
2017-07-15T05:35:28.357Z,-4.12
2017-07-15T05:36:17.419Z,-4.12
2017-07-15T05:37:12.433Z,-4.12
2017-07-15T05:38:07.521Z,-4.12
2017-07-15T05:39:01.883Z,-4.12
2017-07-15T05:39:55.538Z,-4.12
2017-07-15T05:40:50.605Z,-4.12
2017-07-15T05:41:51.058Z,-4.12
2017-07-15T05:42:38.680Z,-4.12
2017-07-15T05:43:39.071Z,-4.12
2017-07-15T05:44:33.878Z,-4.12
2017-07-15T05:45:21.859Z,-4.12
2017-07-15T05:46:16.947Z,-4.12
2017-07-15T05:47:05.901Z,-4.12
2017-07-15T05:47:59.985Z,-4.12
2017-07-15T05:48:53.936Z,-4.12
2017-07-15T05:49:42.041Z,-4.12
2017-07-15T05:50:37.099Z,-4.11
2017-07-15T05:51:26.168Z,-4.11
2017-07-15T05:52:20.178Z,-4.11
2017-07-15T05:53:20.172Z,-4.11
2017-07-15T05:54:08.223Z,-4.11
2017-07-15T05:55:08.342Z,-4.11
2017-07-15T05:55:57.370Z,-4.11
2017-07-15T05:56:51.784Z,-4.11
2017-07-15T05:57:45.445Z,-4.12
2017-07-15T05:58:34.526Z,-4.11
2017-07-15T05:59:28.494Z,-4.11
2017-07-15T06:00:28.775Z,-4.11
2017-07-15T06:01:22.694Z,-4.11
2017-07-15T06:02:23.720Z,-4.11
2017-07-15T06:03:23.703Z,-4.11
2017-07-15T06:04:17.788Z,-4.11
2017-07-15T06:05:11.761Z,-4.11
2017-07-15T06:06:00.171Z,-4.10
2017-07-15T06:07:00.818Z,-4.11
2017-07-15T06:07:55.905Z,-4.10
2017-07-15T06:08:49.907Z,-4.09
2017-07-15T06:09:39.104Z,-4.09
2017-07-15T06:10:26.954Z,-4.09
2017-07-15T06:11:28.313Z,-4.08
2017-07-15T06:12:17.372Z,-4.08
2017-07-15T06:13:12.235Z,-4.08
2017-07-15T06:14:06.325Z,-4.08
2017-07-15T06:15:00.425Z,-4.08
2017-07-15T06:15:48.347Z,-4.08
2017-07-15T06:16:42.441Z,-4.08
2017-07-15T06:17:37.736Z,-4.09
2017-07-15T06:18:26.711Z,-4.09
2017-07-15T06:19:20.550Z,-4.10
2017-07-15T06:20:14.562Z,-4.10
2017-07-15T06:21:08.669Z,-4.10
2017-07-15T06:21:58.478Z,-4.11
2017-07-15T06:22:57.751Z,-4.11
2017-07-15T06:23:51.752Z,-4.11
2017-07-15T06:24:45.793Z,-4.11
2017-07-15T06:25:34.860Z,-4.11
2017-07-15T06:26:29.981Z,-4.11
2017-07-15T06:27:18.263Z,-4.11
2017-07-15T06:28:07.021Z,-4.12
2017-07-15T06:28:55.121Z,-4.12
2017-07-15T06:29:49.191Z,-4.12
2017-07-15T06:30:38.130Z,-4.12
2017-07-15T06:31:32.333Z,-4.12
2017-07-15T06:32:32.434Z,-4.12
2017-07-15T06:33:21.349Z,-4.12
2017-07-15T06:34:16.322Z,-4.12
2017-07-15T06:35:05.364Z,-4.12
2017-07-15T06:35:59.408Z,-4.12
2017-07-15T06:36:47.983Z,-4.12
2017-07-15T06:37:42.578Z,-4.12
2017-07-15T06:38:30.647Z,-4.12
2017-07-15T06:39:18.657Z,-4.12
2017-07-15T06:40:12.640Z,-4.12
2017-07-15T06:41:12.678Z,-4.12
2017-07-15T06:42:06.761Z,-4.12
2017-07-15T06:42:55.887Z,-4.12
2017-07-15T06:43:49.870Z,-4.11
2017-07-15T06:44:39.024Z,-4.11
2017-07-15T06:45:33.004Z,-4.11
2017-07-15T06:46:22.037Z,-4.11
2017-07-15T06:47:10.062Z,-4.12
2017-07-15T06:47:59.098Z,-4.11
2017-07-15T06:48:48.279Z,-4.11
2017-07-15T06:49:37.188Z,-4.11
2017-07-15T06:50:26.272Z,-4.11
2017-07-15T06:51:15.241Z,-4.12
2017-07-15T06:52:09.344Z,-4.12
2017-07-15T06:53:03.384Z,-4.12
2017-07-15T06:53:52.446Z,-4.11
2017-07-15T06:54:41.469Z,-4.11
2017-07-15T06:55:35.916Z,-4.11
2017-07-15T06:56:35.513Z,-4.11
2017-07-15T06:57:30.570Z,-4.11
2017-07-15T06:58:19.782Z,-4.11
2017-07-15T06:59:08.688Z,-4.11
2017-07-15T07:00:02.764Z,-4.11
2017-07-15T07:00:50.727Z,-4.11
2017-07-15T07:01:39.775Z,-4.10
2017-07-15T07:02:28.792Z,-4.10
2017-07-15T07:03:24.031Z,-4.10
2017-07-15T07:04:17.922Z,-4.10
2017-07-15T07:05:06.068Z,-4.10
2017-07-15T07:06:00.081Z,-4.10
2017-07-15T07:06:55.370Z,-4.10
2017-07-15T07:07:56.108Z,-4.11
2017-07-15T07:08:56.320Z,-4.11
2017-07-15T07:09:44.300Z,-4.11
2017-07-15T07:10:32.248Z,-4.11
2017-07-15T07:11:21.412Z,-4.11
2017-07-15T07:12:15.477Z,-4.11
2017-07-15T07:13:10.390Z,-4.11
2017-07-15T07:14:10.517Z,-4.11
2017-07-15T07:15:04.476Z,-4.11
2017-07-15T07:15:58.490Z,-4.11
2017-07-15T07:16:52.892Z,-4.11
2017-07-15T07:17:40.585Z,-4.11
2017-07-15T07:18:29.685Z,-4.11
2017-07-15T07:19:18.908Z,-4.11
2017-07-15T07:20:07.812Z,-4.11
2017-07-15T07:20:55.941Z,-4.11
2017-07-15T07:21:51.327Z,-4.11
2017-07-15T07:22:44.935Z,-4.11
2017-07-15T07:23:38.948Z,-4.11
2017-07-15T07:24:33.031Z,-4.11
2017-07-15T07:25:27.068Z,-4.11
2017-07-15T07:26:21.051Z,-4.11
2017-07-15T07:27:15.064Z,-4.11
2017-07-15T07:28:10.178Z,-4.11
2017-07-15T07:29:10.209Z,-4.11
2017-07-15T07:30:04.341Z,-4.11
2017-07-15T07:31:04.315Z,-4.11
2017-07-15T07:31:59.325Z,-4.10
2017-07-15T07:32:48.469Z,-4.10
2017-07-15T07:33:42.443Z,-4.10
2017-07-15T07:34:37.469Z,-4.10
2017-07-15T07:35:31.563Z,-4.10
2017-07-15T07:36:26.615Z,-4.10
2017-07-15T07:37:20.580Z,-4.10
2017-07-15T07:38:14.734Z,-4.10
2017-07-15T07:39:03.661Z,-4.10
2017-07-15T07:39:52.876Z,-4.10
2017-07-15T07:40:47.837Z,-4.10
2017-07-15T07:41:47.904Z,-4.10
2017-07-15T07:42:43.033Z,-4.10
2017-07-15T07:43:30.878Z,-4.10
2017-07-15T07:44:30.979Z,-4.10
2017-07-15T07:45:26.254Z,-4.09
2017-07-15T07:46:20.136Z,-4.09
2017-07-15T07:47:15.183Z,-4.09
2017-07-15T07:48:09.185Z,-4.09
2017-07-15T07:48:58.213Z,-4.09
2017-07-15T07:49:53.406Z,-4.09
2017-07-15T07:50:47.290Z,-4.09
2017-07-15T07:51:41.477Z,-4.09
2017-07-15T07:52:35.394Z,-4.09
2017-07-15T07:53:29.547Z,-4.09
2017-07-15T07:54:23.465Z,-4.09
2017-07-15T07:55:23.538Z,-4.09
2017-07-15T07:56:18.618Z,-4.10
2017-07-15T07:57:06.711Z,-4.10
2017-07-15T07:57:56.004Z,-4.10
2017-07-15T07:58:49.691Z,-4.10
2017-07-15T07:59:44.790Z,-4.10
2017-07-15T08:00:32.836Z,-4.10
2017-07-15T08:01:21.211Z,-4.09
2017-07-15T08:02:09.950Z,-4.09
2017-07-15T08:03:04.254Z,-4.08
2017-07-15T08:04:04.013Z,-4.07
2017-07-15T08:04:58.374Z,-4.06
2017-07-15T08:05:59.362Z,4.79
2017-07-15T08:06:53.521Z,3.38
2017-07-15T08:07:48.592Z,6.51
2017-07-15T08:08:42.490Z,19.11
2017-07-15T08:09:36.531Z,21.96
2017-07-15T08:10:24.693Z,23.68
2017-07-15T08:11:24.739Z,39.54
2017-07-15T08:12:18.803Z,35.72
2017-07-15T08:13:13.835Z,27.77
2017-07-15T08:14:08.861Z,26.47
2017-07-15T08:15:03.009Z,35.30
2017-07-15T08:15:57.975Z,30.48
2017-07-15T08:16:59.085Z,25.39
2017-07-15T08:17:54.094Z,15.99
2017-07-15T08:18:49.146Z,16.73
2017-07-15T08:19:44.222Z,12.83
2017-07-15T08:20:44.288Z,12.20
2017-07-15T08:21:38.244Z,1.88
2017-07-15T08:22:32.339Z,1.96
2017-07-15T08:23:21.378Z,-2.78
2017-07-15T08:24:15.524Z,-1.27
2017-07-15T08:25:10.428Z,-0.48
2017-07-15T08:25:59.564Z,-2.27
2017-07-15T08:26:53.712Z,-3.34
2017-07-15T08:27:53.481Z,-4.07
2017-07-15T08:28:48.594Z,-4.07
2017-07-15T08:29:42.910Z,-3.51
2017-07-15T08:30:37.865Z,-4.07
2017-07-15T08:31:31.847Z,-4.07
2017-07-15T08:32:25.959Z,-4.08
2017-07-15T08:33:20.011Z,-4.08
2017-07-15T08:34:08.861Z,-4.08
2017-07-15T08:35:04.265Z,-4.08
2017-07-15T08:35:52.897Z,-4.09
2017-07-15T08:36:53.319Z,-4.09
2017-07-15T08:37:47.177Z,-4.09
2017-07-15T08:38:41.012Z,-4.09
2017-07-15T08:39:41.073Z,-4.09
2017-07-15T08:40:41.640Z,-4.09
2017-07-15T08:41:36.234Z,-4.09
2017-07-15T08:42:30.298Z,-4.09
2017-07-15T08:43:24.481Z,-4.09
2017-07-15T08:44:24.269Z,-4.09
2017-07-15T08:45:24.382Z,-4.09
2017-07-15T08:46:13.534Z,-4.09
2017-07-15T08:47:07.439Z,-4.09
2017-07-15T08:48:01.513Z,-4.09
2017-07-15T08:48:49.670Z,-4.08
2017-07-15T08:49:44.685Z,-4.08
2017-07-15T08:50:38.738Z,-4.08
2017-07-15T08:51:34.097Z,-4.08
2017-07-15T08:52:28.839Z,-4.07
2017-07-15T08:53:22.805Z,-4.07
2017-07-15T08:54:16.856Z,-4.07
2017-07-15T08:55:11.063Z,-4.07
2017-07-15T08:56:05.012Z,-4.07
2017-07-15T08:56:59.489Z,-2.71
2017-07-15T08:57:53.024Z,-4.06
2017-07-15T08:58:53.069Z,5.92
2017-07-15T08:59:48.266Z,1.73
2017-07-15T09:00:43.264Z,9.99
2017-07-15T09:01:38.318Z,5.08
2017-07-15T09:02:39.361Z,-1.19
2017-07-15T09:03:34.506Z,-3.98
2017-07-15T09:04:29.413Z,-2.94
2017-07-15T09:05:24.438Z,-0.79
2017-07-15T09:06:24.488Z,8.09
2017-07-15T09:07:12.535Z,6.62
2017-07-15T09:08:06.539Z,14.29
2017-07-15T09:09:00.804Z,13.16
2017-07-15T09:09:49.676Z,5.31
2017-07-15T09:10:37.827Z,11.21
2017-07-15T09:11:33.223Z,17.53
2017-07-15T09:12:26.860Z,32.55
2017-07-15T09:13:21.088Z,34.33
2017-07-15T09:14:15.974Z,35.86
2017-07-15T09:15:10.971Z,32.30
2017-07-15T09:16:05.290Z,24.51
2017-07-15T09:17:05.049Z,39.39
2017-07-15T09:18:00.228Z,38.90
2017-07-15T09:18:49.214Z,39.56
2017-07-15T09:19:43.205Z,35.48
2017-07-15T09:20:43.366Z,34.16
2017-07-15T09:21:37.331Z,39.02
2017-07-15T09:22:37.434Z,33.04
2017-07-15T09:23:25.491Z,34.81
2017-07-15T09:24:14.780Z,48.02
2017-07-15T09:25:03.650Z,38.06
2017-07-15T09:25:52.584Z,39.67
2017-07-15T09:26:46.954Z,46.89
2017-07-15T09:27:47.078Z,43.60
2017-07-15T09:28:42.160Z,39.31
2017-07-15T09:29:29.916Z,41.14
2017-07-15T09:30:30.929Z,38.09
2017-07-15T09:31:31.372Z,33.78
2017-07-15T09:32:26.044Z,32.34
2017-07-15T09:33:15.335Z,33.94
2017-07-15T09:34:15.212Z,33.23
2017-07-15T09:35:09.259Z,35.80
2017-07-15T09:36:04.495Z,24.61
2017-07-15T09:37:04.228Z,26.66
2017-07-15T09:37:58.422Z,29.04
2017-07-15T09:38:59.465Z,25.28
2017-07-15T09:39:53.543Z,21.61
2017-07-15T09:40:47.765Z,18.62
2017-07-15T09:41:47.820Z,10.42
2017-07-15T09:42:41.626Z,10.64
2017-07-15T09:43:41.947Z,19.24
2017-07-15T09:44:36.925Z,12.45
2017-07-15T09:45:36.814Z,7.37
2017-07-15T09:46:31.897Z,10.12
2017-07-15T09:47:26.905Z,13.07
2017-07-15T09:48:27.915Z,12.24
2017-07-15T09:49:21.923Z,26.94
2017-07-15T09:50:16.012Z,24.95
2017-07-15T09:51:11.332Z,28.85
2017-07-15T09:52:11.098Z,30.13
2017-07-15T09:53:05.166Z,32.53
2017-07-15T09:54:00.184Z,32.12
2017-07-15T09:54:49.273Z,27.61
2017-07-15T09:55:43.292Z,29.31
2017-07-15T09:56:37.420Z,27.13
2017-07-15T09:57:31.535Z,33.37
2017-07-15T09:58:19.479Z,35.37
2017-07-15T09:59:20.570Z,39.89
2017-07-15T10:00:20.714Z,35.93
2017-07-15T10:01:14.752Z,34.09
2017-07-15T10:02:08.718Z,36.34
2017-07-15T10:03:03.865Z,37.79
2017-07-15T10:03:52.811Z,29.26
2017-07-15T10:04:47.005Z,35.62
2017-07-15T10:05:41.135Z,26.76
2017-07-15T10:06:35.289Z,41.87
2017-07-15T10:07:29.262Z,39.62
2017-07-15T10:08:23.448Z,36.85
2017-07-15T10:09:18.348Z,37.47
2017-07-15T10:10:13.521Z,34.84
2017-07-15T10:11:14.545Z,31.90
2017-07-15T10:12:14.608Z,23.49
2017-07-15T10:13:08.683Z,35.50
2017-07-15T10:14:02.739Z,34.97
2017-07-15T10:14:56.747Z,23.19
2017-07-15T10:15:50.720Z,42.31
2017-07-15T10:16:45.800Z,41.89
2017-07-15T10:17:39.937Z,45.27
2017-07-15T10:18:34.006Z,43.08
2017-07-15T10:19:28.184Z,41.27
2017-07-15T10:20:23.094Z,48.51
2017-07-15T10:21:17.171Z,48.36
2017-07-15T10:22:05.232Z,49.74
2017-07-15T10:22:58.880Z,46.69
2017-07-15T10:23:47.949Z,50.84
2017-07-15T10:24:43.066Z,50.36
2017-07-15T10:25:37.432Z,50.50
2017-07-15T10:26:26.417Z,50.26
2017-07-15T10:27:20.514Z,49.82
2017-07-15T10:28:14.674Z,48.60
2017-07-15T10:29:14.623Z,48.81
2017-07-15T10:30:03.768Z,49.04
2017-07-15T10:30:58.840Z,49.64
2017-07-15T10:31:52.856Z,49.65
2017-07-15T10:32:47.897Z,49.02
2017-07-15T10:33:36.792Z,46.77
2017-07-15T10:34:25.970Z,46.41
2017-07-15T10:35:26.060Z,42.73
2017-07-15T10:36:21.195Z,40.74
2017-07-15T10:37:16.010Z,40.62
2017-07-15T10:38:10.159Z,37.19
2017-07-15T10:39:05.249Z,38.10
2017-07-15T10:39:54.254Z,38.26
2017-07-15T10:40:54.338Z,38.59
2017-07-15T10:41:54.591Z,37.62
2017-07-15T10:42:48.567Z,36.26
2017-07-15T10:43:43.281Z,32.36
2017-07-15T10:44:37.466Z,43.38
2017-07-15T10:45:31.539Z,45.15
2017-07-15T10:46:26.485Z,42.89
2017-07-15T10:47:21.552Z,44.98
2017-07-15T10:48:15.577Z,45.95
2017-07-15T10:49:09.593Z,44.17
2017-07-15T10:50:09.738Z,45.37
2017-07-15T10:51:04.739Z,44.07
2017-07-15T10:51:59.203Z,46.72
2017-07-15T10:52:52.955Z,45.11
2017-07-15T10:53:47.891Z,46.71
2017-07-15T10:54:41.992Z,42.15
2017-07-15T10:55:31.458Z,43.30
2017-07-15T10:56:32.083Z,41.30
2017-07-15T10:57:32.190Z,40.57
2017-07-15T10:58:27.216Z,37.21
2017-07-15T10:59:27.338Z,39.42
2017-07-15T11:00:22.601Z,42.52
2017-07-15T11:01:16.479Z,41.95
2017-07-15T11:02:10.588Z,47.45
2017-07-15T11:03:04.621Z,44.83
2017-07-15T11:03:59.460Z,44.83
2017-07-15T11:04:53.601Z,47.09
2017-07-15T11:05:42.851Z,46.59
2017-07-15T11:06:31.922Z,43.13
2017-07-15T11:07:26.937Z,46.36
2017-07-15T11:08:26.795Z,43.73
2017-07-15T11:09:16.166Z,42.92
2017-07-15T11:10:04.975Z,41.08
2017-07-15T11:10:59.962Z,40.16
2017-07-15T11:11:48.988Z,39.87
2017-07-15T11:12:43.096Z,39.23
2017-07-15T11:13:38.225Z,38.45
2017-07-15T11:14:32.222Z,34.38
2017-07-15T11:15:32.202Z,28.40
2017-07-15T11:16:21.539Z,35.02
2017-07-15T11:17:15.368Z,32.27
2017-07-15T11:18:03.441Z,26.77
2017-07-15T11:18:52.565Z,32.03
2017-07-15T11:19:47.549Z,25.57
2017-07-15T11:20:41.633Z,37.16
2017-07-15T11:21:36.627Z,32.30
2017-07-15T11:22:25.755Z,31.12
2017-07-15T11:23:20.685Z,27.84
2017-07-15T11:24:14.915Z,21.62
2017-07-15T11:25:08.764Z,31.30
2017-07-15T11:26:02.820Z,32.51
2017-07-15T11:27:04.451Z,29.46
2017-07-15T11:27:53.196Z,47.51
2017-07-15T11:28:47.023Z,40.79
2017-07-15T11:29:47.433Z,46.73
2017-07-15T11:30:36.174Z,46.59
2017-07-15T11:31:30.576Z,47.16
2017-07-15T11:32:24.320Z,47.53
2017-07-15T11:33:18.352Z,48.23
2017-07-15T11:34:07.315Z,45.62
2017-07-15T11:35:01.507Z,41.40